»·PEaware :: CAP2652 KAVX-KSAN

CAP2652 :: KAVX-KSAN

FLIGHT INFORMATION

Flight Status: Arrived
Operator: Unknown
More flights by this operator :: More flights under this callsign
Pilot: Chris S. (30014)
Aircraft: CESSNA 182 SKYLANE
(C182)
More flights by this aircraft type
Origin: KAVX Catalina
United States
Destination: KSAN San Diego Intl-Lindbergh
United States
More flights between these airports :: More routes between these airports
Route: +SXC V208 OCN V23 MZB
File this flight plan on PilotEdge
Remarks: Request I-8, TEC route, Tail#N152CP, Callsign CAP2652
Altitude:
(Current/Filed)
5,000ft
Speed:
(Current/Filed)
130kts
Departed: 21-Nov-20 04:54 PM
Arrived: 21-Nov-20 05:53 PM
Distance/Time
Traveled:
74nm/0:58
Distance/Time
To Go:
Arrived

Flight Plot

Page will automatically refresh every two minutes.


Map Options




Map Legend


Flown Route
Filed Route
Departure Airport
Arrival Airport
Navaid (VOR, NDB)
Fix

Horizontal Profiles

Position Reports

Time Latitude Longitude Heading Altitude Ground
Speed
21-Nov-20 16:19 33.403254 -118.415912 296 1605ft 0kts
21-Nov-20 16:19 33.403254 -118.415913 296 1605ft 0kts
21-Nov-20 16:21 33.403255 -118.415915 296 1605ft 0kts
21-Nov-20 16:21 33.403255 -118.415916 296 1605ft 0kts
21-Nov-20 16:23 33.403256 -118.415917 296 1605ft 0kts
21-Nov-20 16:23 33.403256 -118.415918 296 1605ft 0kts
21-Nov-20 16:24 33.403257 -118.415921 296 1605ft 0kts
21-Nov-20 16:25 33.403259 -118.415925 296 1605ft 0kts
21-Nov-20 16:26 33.403261 -118.415930 296 1605ft 0kts
21-Nov-20 16:27 33.404538 -118.415552 54 1605ft 15kts
21-Nov-20 16:28 33.406909 -118.411550 53 1605ft 0kts
21-Nov-20 16:29 33.406910 -118.411550 53 1605ft 0kts
21-Nov-20 16:30 33.406910 -118.411549 53 1605ft 0kts
21-Nov-20 16:31 33.406910 -118.411549 53 1605ft 0kts
21-Nov-20 16:32 33.406911 -118.411548 53 1605ft 0kts
21-Nov-20 16:33 33.406911 -118.411548 53 1605ft 0kts
21-Nov-20 16:34 33.406911 -118.411547 53 1605ft 0kts
21-Nov-20 16:35 33.406912 -118.411546 53 1605ft 0kts
21-Nov-20 16:36 33.406912 -118.411546 53 1605ft 0kts
21-Nov-20 16:37 33.406913 -118.411545 53 1605ft 0kts
21-Nov-20 16:38 33.406913 -118.411544 53 1605ft 0kts
21-Nov-20 16:39 33.406913 -118.411544 53 1605ft 0kts
21-Nov-20 16:40 33.406914 -118.411543 53 1605ft 0kts
21-Nov-20 16:41 33.406914 -118.411542 53 1605ft 0kts
21-Nov-20 16:42 33.406915 -118.411542 53 1605ft 0kts
21-Nov-20 16:43 33.406915 -118.411541 53 1605ft 0kts
21-Nov-20 16:44 33.406915 -118.411540 53 1605ft 0kts
21-Nov-20 16:45 33.406916 -118.411540 53 1605ft 0kts
21-Nov-20 16:46 33.406916 -118.411539 53 1605ft 0kts
21-Nov-20 16:47 33.406917 -118.411539 53 1605ft 0kts
21-Nov-20 16:48 33.406917 -118.411538 53 1605ft 0kts
21-Nov-20 16:49 33.406917 -118.411537 53 1605ft 0kts
21-Nov-20 16:50 33.406918 -118.411537 53 1605ft 0kts
21-Nov-20 16:51 33.406924 -118.411526 54 1605ft 1kts
21-Nov-20 16:52 33.407376 -118.411755 236 1605ft 10kts
21-Nov-20 16:53 33.395315 -118.429734 229 2082ft 84kts
21-Nov-20 16:54 33.375937 -118.433353 104 2847ft 97kts
21-Nov-20 16:55 33.375633 -118.403385 115 3644ft 96kts
21-Nov-20 16:56 33.368749 -118.371546 94 4370ft 95kts
21-Nov-20 16:57 33.365311 -118.340093 100 5003ft 103kts
21-Nov-20 16:58 33.360272 -118.303193 96 5044ft 125kts
21-Nov-20 16:59 33.354475 -118.260019 95 5051ft 132kts
21-Nov-20 17:00 33.349154 -118.215885 99 5030ft 135kts
21-Nov-20 17:01 33.343801 -118.170954 97 4976ft 137kts
21-Nov-20 17:02 33.337692 -118.126874 97 5007ft 136kts
21-Nov-20 17:03 33.332373 -118.082361 98 5017ft 134kts
21-Nov-20 17:04 33.324323 -118.038111 102 4988ft 134kts
21-Nov-20 17:05 33.315758 -117.994673 101 5016ft 134kts
21-Nov-20 17:06 33.309022 -117.950723 97 5040ft 134kts
21-Nov-20 17:07 33.301907 -117.906253 100 4985ft 136kts
21-Nov-20 17:08 33.296232 -117.861783 96 5000ft 133kts
21-Nov-20 17:09 33.291435 -117.817541 96 4993ft 136kts
21-Nov-20 17:10 33.286790 -117.773576 100 5116ft 129kts
21-Nov-20 17:11 33.280034 -117.728822 99 4962ft 137kts
21-Nov-20 17:12 33.274188 -117.684873 100 5081ft 127kts
21-Nov-20 17:13 33.269428 -117.640734 97 4977ft 137kts
21-Nov-20 17:14 33.263698 -117.597049 96 5026ft 135kts
21-Nov-20 17:15 33.259061 -117.552313 96 5038ft 131kts
21-Nov-20 17:16 33.252171 -117.508742 101 4965ft 139kts
21-Nov-20 17:17 33.246693 -117.464500 101 4970ft 137kts
21-Nov-20 17:18 33.239498 -117.421635 122 5050ft 133kts
21-Nov-20 17:19 33.206617 -117.402889 161 4948ft 142kts
21-Nov-20 17:20 33.170961 -117.387082 163 4986ft 132kts
21-Nov-20 17:21 33.135701 -117.373039 163 4984ft 135kts
21-Nov-20 17:22 33.100036 -117.359796 165 5019ft 133kts
21-Nov-20 17:23 33.064694 -117.344508 159 5008ft 133kts
21-Nov-20 17:24 33.029824 -117.328642 164 5045ft 131kts
21-Nov-20 17:25 32.994679 -117.312808 162 4990ft 136kts
21-Nov-20 17:26 32.959376 -117.297269 158 4996ft 133kts
21-Nov-20 17:27 32.924859 -117.279441 163 5007ft 131kts
21-Nov-20 17:28 32.889626 -117.264836 146 4992ft 134kts
21-Nov-20 17:29 32.879815 -117.223188 100 5007ft 133kts
21-Nov-20 17:30 32.871749 -117.179668 102 5053ft 128kts
21-Nov-20 17:31 32.863869 -117.135886 100 4970ft 137kts
21-Nov-20 17:32 32.856577 -117.091548 99 4987ft 137kts
21-Nov-20 17:33 32.849744 -117.046845 99 4995ft 137kts
21-Nov-20 17:34 32.841933 -117.002399 104 5028ft 135kts
21-Nov-20 17:35 32.833404 -116.957684 104 4948ft 140kts
21-Nov-20 17:36 32.821798 -116.914090 111 5001ft 136kts
21-Nov-20 17:37 32.808174 -116.871807 112 4999ft 138kts
21-Nov-20 17:38 32.794129 -116.829998 132 5059ft 135kts
21-Nov-20 17:39 32.757814 -116.829361 191 5032ft 137kts
21-Nov-20 17:40 32.719873 -116.836054 191 5026ft 134kts
21-Nov-20 17:41 32.695205 -116.861857 252 5034ft 125kts
21-Nov-20 17:42 32.683674 -116.901770 251 4605ft 137kts
21-Nov-20 17:43 32.675120 -116.945116 285 4345ft 141kts
21-Nov-20 17:44 32.686027 -116.991165 283 3842ft 142kts
21-Nov-20 17:45 32.697301 -117.034808 281 3613ft 140kts
21-Nov-20 17:46 32.700371 -117.056599 290 3149ft 96kts
21-Nov-20 17:47 32.706748 -117.082661 287 2056ft 85kts
21-Nov-20 17:48 32.713219 -117.105729 290 1491ft 75kts
21-Nov-20 17:50 32.718976 -117.130124 289 919ft 75kts
21-Nov-20 17:51 32.724539 -117.153272 290 674ft 74kts
21-Nov-20 17:52 32.730140 -117.175924 290 285ft 65kts
21-Nov-20 17:53 32.734174 -117.190106 8 18ft 8kts
21-Nov-20 17:54 32.734344 -117.190071 17 18ft 0kts
21-Nov-20 17:55 32.732921 -117.183007 89 18ft 21kts

Navigation Log

Ident Type
Flight plan parsing failed, navigation log unavailable